Time;durP1;ratioP1;P1;durP2;ratioP2;P2;SDS_P1;SDS_P2;PMS_P1;PMS_P2;Temp;Humidity;BMP_temperature;BMP_pressure;BME280_temperature;BME280_humidity;BME280_pressure;Samples;Min_cycle;Max_cycle;Signal;HPM_P1;HPM_P2
2021/03/23 00:01:07;;;;;;;16.42;4.63;;;;;;;23.79;50.21;101390.34;5054119;28;20025;-67
2021/03/23 00:03:41;;;;;;;17.73;3.83;;;;;;;23.78;50.29;101392.22;5054535;28;20513;-66
2021/03/23 00:06:08;;;;;;;11.63;3.15;;;;;;;23.77;50.67;101389.69;5054006;28;20376;-66
2021/03/23 00:08:45;;;;;;;16.50;3.67;;;;;;;23.73;50.33;101396.63;5054122;28;20135;-66
2021/03/23 00:11:13;;;;;;;14.43;3.55;;;;;;;23.70;50.79;101390.47;5053881;28;20484;-66
2021/03/23 00:13:40;;;;;;;11.93;3.50;;;;;;;23.66;50.67;101400.13;5054121;28;20025;-65
2021/03/23 00:16:07;;;;;;;12.88;3.28;;;;;;;23.67;50.96;101396.31;5053583;28;20047;-66
2021/03/23 00:18:32;;;;;;;15.15;3.35;;;;;;;23.67;50.34;101398.22;5053871;28;20060;-66
2021/03/23 00:20:58;;;;;;;16.80;3.80;;;;;;;23.63;50.55;101389.53;5053833;28;20111;-66
2021/03/23 00:23:24;;;;;;;14.10;4.15;;;;;;;23.61;50.69;101386.13;5053226;28;20028;-65
2021/03/23 00:25:50;;;;;;;18.27;4.10;;;;;;;23.61;50.03;101394.38;5036022;28;20025;-66
2021/03/23 00:28:16;;;;;;;12.40;3.35;;;;;;;23.57;50.21;101398.53;5053521;28;20419;-66
2021/03/23 00:30:41;;;;;;;14.95;3.72;;;;;;;23.58;50.03;101389.25;5053774;28;20043;-67
2021/03/23 00:33:07;;;;;;;13.50;5.25;;;;;;;23.57;50.12;101405.94;5053477;28;20456;-66
2021/03/23 00:35:33;;;;;;;13.07;3.83;;;;;;;23.58;49.82;101411.22;5053410;28;20057;-67
2021/03/23 00:38:02;;;;;;;16.08;4.03;;;;;;;23.52;50.15;101409.22;5035537;28;20032;-66
2021/03/23 00:40:34;;;;;;;17.63;3.75;;;;;;;23.50;50.67;101411.28;5052916;28;20131;-66
2021/03/23 00:43:03;;;;;;;14.63;3.70;;;;;;;23.49;51.23;101404.09;5052946;28;20037;-66
2021/03/23 00:45:29;;;;;;;11.90;4.22;;;;;;;23.49;51.27;101416.97;5053427;28;20176;-66
2021/03/23 00:47:56;;;;;;;15.60;4.05;;;;;;;23.50;51.35;101408.53;5035479;28;20123;-67
2021/03/23 00:50:21;;;;;;;14.85;4.07;;;;;;;23.43;51.80;101410.34;5053088;28;20037;-66
2021/03/23 00:52:47;;;;;;;10.85;2.53;;;;;;;23.45;51.54;101412.91;5053362;28;20353;-66
2021/03/23 00:55:13;;;;;;;15.60;4.25;;;;;;;23.44;51.78;101401.09;5052877;28;20159;-67
2021/03/23 00:57:38;;;;;;;16.23;3.63;;;;;;;23.48;51.98;101402.41;5050920;28;20056;-67
2021/03/23 01:00:06;;;;;;;15.43;3.80;;;;;;;23.43;51.86;101399.38;5033620;28;20487;-66
2021/03/23 01:02:31;;;;;;;14.45;3.78;;;;;;;23.46;51.66;101398.16;5052738;28;20049;-66
2021/03/23 01:04:56;;;;;;;14.60;4.07;;;;;;;23.46;52.03;101407.22;5052875;28;20530;-67
2021/03/23 01:07:22;;;;;;;18.60;4.40;;;;;;;23.46;52.59;101403.63;5052761;28;20039;-66
2021/03/23 01:09:47;;;;;;;14.38;3.75;;;;;;;23.40;52.79;101406.09;5052778;28;20043;-67
2021/03/23 01:12:12;;;;;;;16.80;4.22;;;;;;;23.42;52.50;101414.16;5052705;28;20025;-66
2021/03/23 01:14:39;;;;;;;14.32;4.03;;;;;;;23.40;52.64;101411.59;5053015;28;20017;-67
2021/03/23 01:17:05;;;;;;;10.73;3.13;;;;;;;23.42;52.27;101419.63;5052506;28;20059;-67
2021/03/23 01:19:31;;;;;;;15.23;3.60;;;;;;;23.39;52.27;101414.53;5052941;28;20024;-67
2021/03/23 01:21:57;;;;;;;16.77;4.10;;;;;;;23.40;52.16;101416.25;5034826;28;20025;-66
2021/03/23 01:24:23;;;;;;;12.35;3.00;;;;;;;23.40;51.81;101416.25;5052617;28;20024;-66
2021/03/23 01:26:49;;;;;;;15.85;4.20;;;;;;;23.39;52.11;101411.78;5052774;28;20456;-67
2021/03/23 01:29:14;;;;;;;15.90;3.95;;;;;;;23.37;51.46;101416.63;5052559;28;20020;-66
2021/03/23 01:31:39;;;;;;;13.20;3.70;;;;;;;23.39;52.68;101420.03;5052706;28;20029;-66
2021/03/23 01:34:05;;;;;;;11.70;3.10;;;;;;;23.36;51.52;101421.25;5052382;28;20048;-67
2021/03/23 01:36:31;;;;;;;14.85;3.67;;;;;;;23.32;51.69;101430.03;5052284;28;20041;-68
2021/03/23 01:38:56;;;;;;;20.92;4.32;;;;;;;23.32;51.62;101427.28;5052061;28;20024;-67
2021/03/23 01:41:21;;;;;;;13.82;3.08;;;;;;;23.32;52.03;101424.56;5052480;28;20032;-66
2021/03/23 01:43:47;;;;;;;15.85;3.97;;;;;;;23.32;51.25;101430.88;5052495;28;20033;-66
2021/03/23 01:46:46;;;;;;;14.18;3.70;;;;;;;23.30;50.87;101416.50;5052230;28;20506;-66
2021/03/23 01:49:33;;;;;;;16.33;4.28;;;;;;;23.31;51.34;101418.22;5052201;28;20021;-68
2021/03/23 01:52:07;;;;;;;13.45;4.43;;;;;;;23.28;50.94;101418.59;5052405;28;20028;-67
2021/03/23 01:54:43;;;;;;;19.38;3.75;;;;;;;23.26;51.05;101403.38;5034254;28;20052;-67
2021/03/23 01:57:10;;;;;;;17.20;3.53;;;;;;;23.30;50.88;101416.50;5052280;28;20021;-67
2021/03/23 01:59:44;;;;;;;14.80;3.60;;;;;;;23.29;50.84;101412.06;5052423;28;20025;-67
2021/03/23 02:02:09;;;;;;;14.80;3.28;;;;;;;23.25;51.16;101407.16;5052024;28;20492;-67
2021/03/23 02:04:35;;;;;;;17.38;4.32;;;;;;;23.22;51.36;101407.56;5052271;28;20033;-68
2021/03/23 02:07:00;;;;;;;18.52;3.85;;;;;;;23.26;51.11;101403.38;5052044;28;20055;-68
2021/03/23 02:09:29;;;;;;;21.00;4.43;;;;;;;23.21;51.47;101405.84;5051976;28;20037;-67
2021/03/23 02:12:00;;;;;;;12.77;3.72;;;;;;;23.20;51.19;101404.16;5052214;28;20020;-67
2021/03/23 02:14:30;;;;;;;13.43;3.60;;;;;;;23.20;50.70;101409.63;5052190;28;20021;-66
2021/03/23 02:17:13;;;;;;;15.73;3.85;;;;;;;23.22;50.98;101404.81;5034312;28;20029;-66
2021/03/23 02:19:39;;;;;;;16.00;3.43;;;;;;;23.17;50.85;101399.03;5052087;28;20051;-67
2021/03/23 02:22:04;;;;;;;14.18;3.83;;;;;;;23.18;50.88;101415.31;5052039;28;20025;-66
2021/03/23 02:24:29;;;;;;;14.50;3.70;;;;;;;23.21;50.81;101394.88;5034068;28;20357;-67
2021/03/23 02:26:55;;;;;;;14.32;4.22;;;;;;;23.22;50.89;101407.56;5034132;28;20039;-67
2021/03/23 02:29:21;;;;;;;19.88;4.82;;;;;;;23.16;50.43;101413.78;5052045;28;20079;-67
2021/03/23 02:31:50;;;;;;;13.18;3.97;;;;;;;23.18;51.26;101417.19;5052118;28;20029;-67
2021/03/23 02:34:18;;;;;;;15.27;4.10;;;;;;;23.14;50.63;101433.16;5051823;28;20416;-67
2021/03/23 02:36:46;;;;;;;11.35;3.03;;;;;;;23.18;50.45;101422.66;5034212;28;20021;-68
2021/03/23 02:39:17;;;;;;;17.13;3.97;;;;;;;23.12;50.31;101427.03;5051423;28;20192;-67
2021/03/23 02:41:42;;;;;;;14.60;3.55;;;;;;;23.13;49.98;101425.13;5051618;28;20533;-68
2021/03/23 02:44:08;;;;;;;12.18;3.58;;;;;;;23.13;50.92;101436.94;5051714;28;20033;-67
2021/03/23 02:46:34;;;;;;;17.50;4.50;;;;;;;23.16;50.66;101435.72;5052178;28;20029;-67
2021/03/23 02:49:00;;;;;;;19.70;3.97;;;;;;;23.09;50.63;101425.50;5055463;28;20024;-67
2021/03/23 02:51:26;;;;;;;15.60;3.67;;;;;;;23.18;50.83;101433.63;5055645;28;20024;-67
2021/03/23 02:53:52;;;;;;;18.95;4.57;;;;;;;23.11;51.45;101441.78;5055338;28;20123;-67
2021/03/23 02:56:18;;;;;;;19.77;4.88;;;;;;;23.08;52.25;101458.63;5053940;28;20467;-66
2021/03/23 02:58:44;;;;;;;18.08;3.92;;;;;;;23.08;53.13;101453.97;5054834;28;20047;-67
2021/03/23 03:01:12;;;;;;;13.32;4.22;;;;;;;23.13;53.12;101460.78;5054992;28;20067;-67
2021/03/23 03:03:38;;;;;;;20.52;4.25;;;;;;;23.08;52.88;101456.72;5055266;28;20028;-66
2021/03/23 03:06:04;;;;;;;16.15;3.63;;;;;;;23.09;53.05;101458.41;5036999;28;20016;-68
2021/03/23 03:08:29;;;;;;;13.85;3.30;;;;;;;23.14;52.74;101459.75;5054774;28;20075;-67
2021/03/23 03:10:55;;;;;;;18.10;4.00;;;;;;;23.13;52.86;101463.53;5055148;28;20036;-67
2021/03/23 03:13:22;;;;;;;18.35;3.47;;;;;;;23.10;53.12;101454.63;5055112;28;20052;-67
2021/03/23 03:15:49;;;;;;;16.05;4.03;;;;;;;23.13;52.53;101458.03;5055211;28;20052;-68
2021/03/23 03:18:16;;;;;;;16.33;3.70;;;;;;;23.15;52.56;101456.81;5054548;28;20104;-67
2021/03/23 03:20:42;;;;;;;18.73;4.22;;;;;;;23.10;53.28;101460.13;5055099;28;20037;-67
2021/03/23 03:23:08;;;;;;;20.55;4.47;;;;;;;23.06;53.30;101458.81;5054813;28;20021;-67
2021/03/23 03:25:33;;;;;;;15.48;3.92;;;;;;;23.06;53.09;101458.81;5054983;28;20035;-67
2021/03/23 03:27:58;;;;;;;20.55;4.68;;;;;;;23.08;53.05;101467.69;5054807;28;20119;-67
2021/03/23 03:30:29;;;;;;;24.98;4.75;;;;;;;23.09;52.16;101463.91;5054794;28;20039;-68
2021/03/23 03:32:56;;;;;;;17.23;4.18;;;;;;;23.09;51.67;101463.06;5054702;28;20033;-67
2021/03/23 03:35:24;;;;;;;16.50;3.97;;;;;;;23.07;52.33;101474.22;5054523;28;20028;-67
2021/03/23 03:37:49;;;;;;;20.33;4.50;;;;;;;23.08;51.62;101467.69;5054779;28;20024;-67
2021/03/23 03:40:22;;;;;;;21.27;4.10;;;;;;;23.07;51.66;101473.38;5054493;28;20032;-67
2021/03/23 03:42:47;;;;;;;15.45;4.47;;;;;;;23.07;51.96;101471.47;5054566;28;20076;-67
2021/03/23 03:45:13;;;;;;;17.60;4.65;;;;;;;23.08;51.99;101469.59;5054421;28;20067;-66
2021/03/23 03:47:38;;;;;;;19.65;5.07;;;;;;;23.04;51.59;101477.34;5054555;28;20051;-67
2021/03/23 03:50:05;;;;;;;22.08;4.90;;;;;;;23.02;51.88;101484.91;5054291;28;20021;-67
2021/03/23 03:52:31;;;;;;;15.43;3.95;;;;;;;23.03;52.42;101478.38;5036626;28;20063;-67
2021/03/23 03:54:57;;;;;;;18.67;4.15;;;;;;;23.01;52.64;101477.72;5054129;28;20130;-67
2021/03/23 03:57:22;;;;;;;14.05;3.55;;;;;;;23.02;51.62;101479.41;5036439;28;20119;-67
2021/03/23 03:59:49;;;;;;;15.30;4.10;;;;;;;23.04;51.49;101480.09;5053141;28;20036;-67
2021/03/23 04:02:14;;;;;;;18.00;4.65;;;;;;;23.02;51.74;101479.41;5036115;28;20523;-67
2021/03/23 04:04:43;;;;;;;18.98;3.72;;;;;;;23.05;51.42;101490.00;5054085;28;20108;-68
2021/03/23 04:07:08;;;;;;;21.17;4.30;;;;;;;23.07;51.03;101492.56;5053988;28;20357;-68
2021/03/23 04:09:33;;;;;;;22.88;5.25;;;;;;;23.04;51.27;101487.47;5053915;28;20123;-69
2021/03/23 04:11:58;;;;;;;16.45;4.22;;;;;;;23.02;51.59;101484.91;5053813;28;20029;-70
2021/03/23 04:14:24;;;;;;;19.50;4.35;;;;;;;23.03;51.37;101483.03;5053995;28;20016;-67
2021/03/23 04:16:49;;;;;;;15.65;4.30;;;;;;;22.99;51.73;101485.25;5053946;28;20031;-67
2021/03/23 04:19:14;;;;;;;21.13;4.90;;;;;;;22.98;51.92;101483.56;5053805;28;20051;-68
2021/03/23 04:21:40;;;;;;;21.40;4.70;;;;;;;22.97;51.86;101486.47;5053972;28;20033;-67
2021/03/23 04:24:05;;;;;;;25.17;4.53;;;;;;;23.02;51.95;101484.91;5053512;28;20021;-67
2021/03/23 04:26:31;;;;;;;22.08;5.03;;;;;;;23.00;51.70;101476.00;5035842;28;20029;-67
2021/03/23 04:28:56;;;;;;;16.67;4.40;;;;;;;23.00;51.57;101492.44;5053933;28;20063;-67
2021/03/23 04:31:36;;;;;;;15.40;4.20;;;;;;;22.99;51.38;101492.63;5053641;28;20025;-67
2021/03/23 04:34:03;;;;;;;20.65;4.63;;;;;;;22.99;51.51;101500.84;5053487;28;20031;-67
2021/03/23 04:36:28;;;;;;;17.38;4.65;;;;;;;23.00;51.46;101484.22;5053580;28;20016;-67
2021/03/23 04:38:54;;;;;;;17.85;4.95;;;;;;;23.01;51.55;101496.03;5051906;28;20024;-68
2021/03/23 04:41:20;;;;;;;20.83;4.47;;;;;;;22.96;52.08;101496.59;5053509;28;20021;-67
2021/03/23 04:43:48;;;;;;;17.23;3.80;;;;;;;22.94;52.08;101493.19;5053431;28;20055;-68
2021/03/23 04:46:17;;;;;;;20.95;4.55;;;;;;;22.95;51.98;101492.16;5035310;28;20048;-67
2021/03/23 04:48:43;;;;;;;20.20;3.83;;;;;;;22.98;51.58;101494.53;5035454;28;20475;-68
2021/03/23 04:51:11;;;;;;;18.27;3.92;;;;;;;22.98;52.12;101494.53;5053173;28;20124;-68
2021/03/23 04:53:38;;;;;;;21.05;4.93;;;;;;;22.96;51.64;101499.34;5053140;28;20136;-67
2021/03/23 04:56:05;;;;;;;24.15;4.95;;;;;;;22.94;52.49;101506.91;5052993;28;20029;-67
2021/03/23 04:58:30;;;;;;;22.33;4.13;;;;;;;22.94;52.78;101506.91;5051024;28;20102;-67
2021/03/23 05:00:57;;;;;;;18.65;5.10;;;;;;;22.97;52.96;101506.53;5052924;28;20539;-67
2021/03/23 05:03:27;;;;;;;22.35;5.05;;;;;;;23.96;50.52;101499.75;5053051;28;20376;-67
2021/03/23 05:05:53;;;;;;;22.00;5.70;;;;;;;24.39;51.46;101499.00;5052673;28;20028;-68
2021/03/23 05:08:19;;;;;;;19.20;4.45;;;;;;;24.67;51.59;101485.28;5052471;28;20025;-67
2021/03/23 05:10:44;;;;;;;17.92;4.70;;;;;;;24.89;50.51;101498.84;5052698;28;20027;-67
2021/03/23 05:13:10;;;;;;;15.68;3.95;;;;;;;25.00;50.83;101489.19;5052812;28;20456;-67
2021/03/23 05:15:35;;;;;;;19.55;4.10;;;;;;;25.14;50.70;101492.91;5052963;28;20031;-67
2021/03/23 05:18:00;;;;;;;21.33;4.78;;;;;;;25.19;49.98;101494.03;5052342;28;20074;-66
2021/03/23 05:20:26;;;;;;;22.17;4.28;;;;;;;25.26;50.58;101494.06;5052837;28;20031;-67
2021/03/23 05:22:51;;;;;;;19.35;5.28;;;;;;;25.27;49.88;101479.25;5052714;28;20025;-67
2021/03/23 05:25:17;;;;;;;17.17;4.07;;;;;;;25.30;50.15;101503.59;5052727;28;20056;-66
2021/03/23 05:27:42;;;;;;;19.55;5.25;;;;;;;25.33;49.82;101508.69;5052845;28;20028;-66
2021/03/23 05:30:09;;;;;;;18.92;5.05;;;;;;;25.36;50.14;101501.94;5052499;28;20025;-68
2021/03/23 05:32:34;;;;;;;18.80;4.65;;;;;;;25.37;50.23;101504.50;5052688;28;20527;-67
2021/03/23 05:35:00;;;;;;;21.70;4.63;;;;;;;25.48;50.21;101509.41;5034639;28;20025;-67
2021/03/23 05:37:25;;;;;;;21.92;4.05;;;;;;;25.49;50.90;101511.13;5052773;28;20025;-66
2021/03/23 05:39:50;;;;;;;17.73;5.50;;;;;;;25.47;50.37;101504.13;5051942;28;20029;-67
2021/03/23 05:42:27;;;;;;;20.30;4.90;;;;;;;25.56;50.63;101507.56;5052173;28;20025;-67
2021/03/23 05:45:05;;;;;;;20.00;4.30;;;;;;;25.50;51.14;101509.22;5052446;28;20467;-66
2021/03/23 05:47:35;;;;;;;13.73;3.75;;;;;;;25.49;49.99;101511.13;5052239;28;20052;-67
2021/03/23 05:50:17;;;;;;;13.80;4.43;;;;;;;25.52;49.42;101506.25;5052617;28;20027;-67
2021/03/23 05:53:00;;;;;;;15.63;4.15;;;;;;;25.54;49.36;101515.19;5052596;28;20033;-68
2021/03/23 05:55:44;;;;;;;18.02;5.00;;;;;;;25.54;50.27;101527.06;5052351;28;20315;-66
2021/03/23 05:58:32;;;;;;;15.00;3.50;;;;;;;25.58;49.25;101527.50;5052235;28;20451;-66
2021/03/23 06:01:08;;;;;;;13.85;3.70;;;;;;;25.57;50.43;101525.78;5052196;28;20027;-67
2021/03/23 06:03:46;;;;;;;16.70;4.53;;;;;;;25.59;50.47;101515.44;5052387;28;20470;-66
2021/03/23 06:06:40;;;;;;;17.33;3.85;;;;;;;25.71;49.88;101517.44;5052096;28;20032;-67
2021/03/23 06:09:05;;;;;;;15.98;4.68;;;;;;;25.66;49.27;101530.06;5051775;28;20025;-66
2021/03/23 06:11:41;;;;;;;19.55;4.75;;;;;;;25.66;50.59;101519.91;5034577;28;20112;-66
2021/03/23 06:14:29;;;;;;;15.57;3.60;;;;;;;25.70;49.44;101514.91;5034201;28;20023;-67
2021/03/23 06:17:03;;;;;;;19.23;4.22;;;;;;;25.66;50.37;101519.06;5052186;28;20107;-67
2021/03/23 06:19:53;;;;;;;14.13;4.17;;;;;;;25.64;50.15;101507.41;5052315;28;20029;-67
2021/03/23 06:22:35;;;;;;;15.77;3.90;;;;;;;25.64;49.70;101507.41;5053626;28;20029;-67
2021/03/23 06:25:31;;;;;;;15.05;4.03;;;;;;;25.65;48.95;101517.34;5055875;28;20547;-67
2021/03/23 06:28:22;;;;;;;16.17;3.85;;;;;;;25.65;50.00;101522.84;5055911;28;20547;-67
2021/03/23 06:30:51;;;;;;;16.45;4.63;;;;;;;25.63;49.75;101520.31;5056087;28;20021;-68
2021/03/23 06:33:20;;;;;;;18.02;4.50;;;;;;;25.68;49.19;101517.81;5055891;28;20540;-67
2021/03/23 06:35:48;;;;;;;17.63;4.75;;;;;;;25.67;50.06;101510.59;5055931;28;20028;-67
2021/03/23 06:38:32;;;;;;;19.92;4.50;;;;;;;25.74;48.66;101505.16;5055444;28;20051;-66
2021/03/23 06:41:21;;;;;;;15.98;3.80;;;;;;;25.86;49.30;101509.00;5037593;28;20120;-67
2021/03/23 06:43:56;;;;;;;17.30;3.88;;;;;;;25.98;49.06;101521.16;5037903;28;20025;-67
2021/03/23 06:46:42;;;;;;;17.65;5.15;;;;;;;26.01;48.77;101512.47;5055611;28;20037;-67
2021/03/23 06:49:14;;;;;;;17.60;5.35;;;;;;;26.03;49.30;101526.91;5055576;28;20021;-66
2021/03/23 06:51:56;;;;;;;19.38;4.28;;;;;;;25.90;50.19;101523.25;5054930;28;20031;-66
2021/03/23 06:54:25;;;;;;;17.10;4.53;;;;;;;25.86;51.50;101525.53;5055328;28;20037;-67
2021/03/23 06:57:13;;;;;;;21.42;4.22;;;;;;;25.85;51.69;101512.81;5052379;28;20378;-67
2021/03/23 07:00:16;;;;;;;16.30;3.70;;;;;;;25.86;51.28;101519.19;5054552;28;20029;-66
2021/03/23 07:02:54;;;;;;;17.27;3.95;;;;;;;25.84;51.74;101535.91;5036503;28;20052;-67
2021/03/23 07:05:35;;;;;;;16.58;4.32;;;;;;;25.86;51.73;101531.03;5053590;28;20476;-66
2021/03/23 07:08:00;;;;;;;14.77;4.28;;;;;;;25.81;51.15;101519.78;5054179;28;20471;-67
2021/03/23 07:10:31;;;;;;;16.50;4.07;;;;;;;25.84;51.25;101522.13;5054656;28;20033;-67
2021/03/23 07:12:58;;;;;;;18.75;3.88;;;;;;;25.84;51.57;101524.88;5054958;28;20025;-66
2021/03/23 07:15:35;;;;;;;18.38;5.28;;;;;;;25.86;52.03;101527.44;5054764;28;20108;-67
2021/03/23 07:18:06;;;;;;;25.35;5.03;;;;;;;25.87;50.98;101521.75;5036910;28;20025;-67
2021/03/23 07:20:35;;;;;;;15.75;3.50;;;;;;;25.86;50.39;101520.03;5035833;28;20032;-66
2021/03/23 07:23:22;;;;;;;16.60;4.20;;;;;;;25.89;52.03;101529.81;5035025;28;20071;-65
2021/03/23 07:25:47;;;;;;;18.40;4.60;;;;;;;25.99;50.39;101522.84;5044360;28;20105;-65
2021/03/23 07:28:27;;;;;;;15.50;3.55;;;;;;;25.94;50.96;101525.38;5054146;28;20063;-65
2021/03/23 07:31:17;;;;;;;16.58;4.03;;;;;;;25.92;51.10;101510.97;5054525;28;20017;-65
2021/03/23 07:33:56;;;;;;;19.20;4.78;;;;;;;25.94;50.84;101511.59;5054328;28;20403;-65
2021/03/23 07:36:43;;;;;;;14.23;4.18;;;;;;;25.92;51.86;101513.72;5054267;28;20108;-65
2021/03/23 07:39:17;;;;;;;18.77;5.35;;;;;;;25.91;49.88;101528.53;5053343;28;20025;-65
2021/03/23 07:41:49;;;;;;;16.30;4.45;;;;;;;25.91;49.46;101524.94;5053855;28;20033;-65
2021/03/23 07:44:32;;;;;;;20.25;4.60;;;;;;;25.86;50.50;101524.69;5053365;28;20033;-65
2021/03/23 07:47:02;;;;;;;14.67;4.80;;;;;;;25.87;50.66;101524.50;5053290;28;20036;-64
2021/03/23 07:49:34;;;;;;;19.23;4.82;;;;;;;25.87;50.02;101530.00;5035390;28;20030;-65
2021/03/23 07:52:16;;;;;;;20.45;5.15;;;;;;;25.88;49.67;101528.97;5035658;28;20429;-66
2021/03/23 07:54:42;;;;;;;19.73;4.15;;;;;;;25.93;50.27;101526.44;5040468;28;20045;-65
2021/03/23 07:57:20;;;;;;;19.80;5.35;;;;;;;25.97;49.58;101532.38;5052053;28;20025;-64
2021/03/23 08:00:16;;;;;;;23.10;4.95;;;;;;;26.07;50.67;101528.19;5040531;28;20025;-64
2021/03/23 08:03:12;;;;;;;18.48;3.70;;;;;;;25.97;51.72;101533.22;5011614;28;20042;-65
2021/03/23 08:06:02;;;;;;;15.02;3.78;;;;;;;25.98;49.92;101539.56;5011097;28;20058;-65
2021/03/23 08:08:49;;;;;;;21.13;4.47;;;;;;;25.95;50.54;101540.84;5011514;28;20049;-65
2021/03/23 08:11:33;;;;;;;17.83;5.03;;;;;;;25.89;49.33;101536.16;5011728;28;20038;-66
2021/03/23 08:14:25;;;;;;;15.90;4.22;;;;;;;25.82;50.16;101540.78;4995150;28;20064;-65
2021/03/23 08:17:06;;;;;;;20.10;4.40;;;;;;;25.86;49.49;101539.31;4952966;29;20043;-65
2021/03/23 08:19:49;;;;;;;17.20;4.05;;;;;;;25.92;49.76;101552.28;4937324;29;20039;-65
2021/03/23 08:22:44;;;;;;;14.35;4.40;;;;;;;25.90;50.41;101554.41;4952443;29;20053;-65
2021/03/23 08:25:09;;;;;;;16.63;3.55;;;;;;;25.88;49.63;101562.00;4952208;29;20429;-66
2021/03/23 08:27:54;;;;;;;19.38;4.30;;;;;;;25.92;49.51;101563.31;4953407;29;20126;-65
2021/03/23 08:30:35;;;;;;;16.33;3.55;;;;;;;25.96;48.53;101575.59;4952795;29;20171;-65
2021/03/23 08:33:12;;;;;;;17.95;4.05;;;;;;;25.94;49.27;101572.19;4951467;29;20039;-65
2021/03/23 08:36:03;;;;;;;15.10;4.03;;;;;;;25.97;50.58;101566.28;4936839;29;20039;-64
2021/03/23 08:38:50;;;;;;;15.63;3.70;;;;;;;25.96;49.89;101560.97;4957426;28;20035;-66
2021/03/23 08:41:33;;;;;;;19.20;4.60;;;;;;;25.95;49.68;101523.47;4971160;28;20094;-65
2021/03/23 08:43:58;;;;;;;20.17;4.38;;;;;;;25.94;50.40;101568.59;4971220;28;20445;-64
2021/03/23 08:46:28;;;;;;;16.70;3.90;;;;;;;25.93;49.29;101561.38;4970999;28;20577;-66
2021/03/23 08:48:56;;;;;;;14.80;3.65;;;;;;;25.83;50.60;101560.91;4971016;28;20440;-65
2021/03/23 08:51:25;;;;;;;17.13;4.32;;;;;;;25.83;51.32;101564.50;4969538;28;20038;-64
2021/03/23 08:53:55;;;;;;;18.95;3.88;;;;;;;25.91;49.94;101566.25;4984074;28;20539;-66
2021/03/23 08:56:55;;;;;;;20.13;4.18;;;;;;;25.94;51.08;101566.69;5032268;28;20056;-66
2021/03/23 08:59:38;;;;;;;18.45;4.57;;;;;;;25.95;51.24;101556.53;5031985;28;20024;-67
2021/03/23 09:02:09;;;;;;;16.20;4.35;;;;;;;26.00;50.42;101560.34;5032957;28;20127;-65
2021/03/23 09:04:41;;;;;;;15.23;4.15;;;;;;;26.01;51.32;101562.06;5051764;28;20399;-64
2021/03/23 09:07:09;;;;;;;16.67;3.78;;;;;;;26.00;51.54;101560.34;5049341;28;20025;-65
2021/03/23 09:09:43;;;;;;;13.85;3.67;;;;;;;26.09;51.63;101553.63;5051161;28;20843;-65
2021/03/23 09:12:39;;;;;;;14.98;5.00;;;;;;;26.26;50.60;101558.78;5049999;28;20040;-65
2021/03/23 09:15:26;;;;;;;17.77;3.63;;;;;;;26.31;50.56;101547.97;5034262;28;20120;-65
2021/03/23 09:18:01;;;;;;;20.27;4.75;;;;;;;26.31;51.18;101550.72;5027522;28;20029;-66
2021/03/23 09:23:19;;;;;;;18.45;4.68;;;;;;;26.07;52.60;101544.72;5051816;28;20112;-66
2021/03/23 09:25:53;;;;;;;17.52;5.15;;;;;;;26.05;51.94;101557.00;5033516;28;20078;-67
2021/03/23 09:28:50;;;;;;;16.00;4.25;;;;;;;26.03;52.14;101554.47;5052553;28;20024;-66
2021/03/23 09:31:24;;;;;;;15.77;5.18;;;;;;;25.97;51.39;101558.00;5033897;28;20037;-66
2021/03/23 09:33:58;;;;;;;18.88;4.80;;;;;;;26.04;51.51;101558.91;5052594;28;20028;-67
2021/03/23 09:36:46;;;;;;;18.35;4.85;;;;;;;26.00;51.83;101556.75;5050858;28;20044;-67
2021/03/23 09:39:15;;;;;;;20.77;4.63;;;;;;;26.02;51.79;101552.72;5051524;28;20028;-68
2021/03/23 09:41:44;;;;;;;19.35;5.45;;;;;;;26.00;50.64;101543.81;5050761;28;20116;-66
2021/03/23 09:44:16;;;;;;;16.38;4.28;;;;;;;26.01;50.60;101542.75;5029234;28;20043;-65
2021/03/23 09:46:50;;;;;;;16.27;4.35;;;;;;;26.04;51.22;101550.66;5040406;28;20025;-67
2021/03/23 09:49:23;;;;;;;18.02;4.40;;;;;;;26.07;51.79;101544.72;5047729;28;20103;-66
2021/03/23 09:51:57;;;;;;;13.95;4.68;;;;;;;26.14;51.88;101539.22;5034537;28;20444;-66
2021/03/23 09:54:22;;;;;;;;;;;;;;;26.25;51.85;101535.03;5051663;28;20411;-67
2021/03/23 09:56:49;;;;;;;20.80;5.13;;;;;;;26.31;52.23;101534.19;5054905;28;19930;-67
2021/03/23 09:59:19;;;;;;;19.77;5.40;;;;;;;26.29;51.16;101542.66;5055711;28;20108;-67
2021/03/23 10:02:04;;;;;;;15.48;4.13;;;;;;;26.21;51.34;101544.78;5056047;28;20036;-66
2021/03/23 10:04:34;;;;;;;18.40;4.95;;;;;;;26.13;51.48;101543.03;5056510;28;20033;-67
2021/03/23 10:07:00;;;;;;;21.05;4.85;;;;;;;26.15;51.25;101537.31;5056307;28;20104;-67
2021/03/23 10:09:30;;;;;;;15.77;4.13;;;;;;;26.12;50.92;101534.97;5038480;28;20025;-66
2021/03/23 10:11:55;;;;;;;18.70;5.13;;;;;;;26.07;51.07;101528.19;5055854;28;20494;-67
2021/03/23 10:14:39;;;;;;;18.08;4.35;;;;;;;26.11;50.54;101527.75;5054829;28;20029;-65
2021/03/23 10:17:12;;;;;;;16.35;4.10;;;;;;;26.11;49.57;101539.63;5056107;28;20525;-66
2021/03/23 10:19:50;;;;;;;13.50;3.88;;;;;;;26.06;50.50;101542.16;5055521;28;20032;-66
2021/03/23 10:22:26;;;;;;;23.63;4.75;;;;;;;26.06;50.06;101534.75;5037321;28;20063;-66
2021/03/23 10:24:53;;;;;;;15.43;5.15;;;;;;;26.05;50.58;101530.31;5055544;28;20025;-65
2021/03/23 10:27:38;;;;;;;13.18;3.90;;;;;;;26.00;50.56;101532.81;5054845;28;20468;-68
2021/03/23 10:30:10;;;;;;;15.70;4.00;;;;;;;26.09;49.70;101537.09;5037046;28;20021;-65
2021/03/23 10:32:52;;;;;;;13.55;3.30;;;;;;;26.08;50.00;101535.41;5052306;28;20027;-66
2021/03/23 10:35:48;;;;;;;17.15;3.80;;;;;;;26.16;49.53;101536.25;5055009;28;20083;-65
2021/03/23 10:38:20;;;;;;;17.23;4.35;;;;;;;26.15;51.36;101534.56;5053815;28;20111;-64
2021/03/23 10:41:00;;;;;;;16.30;4.47;;;;;;;26.13;50.21;101543.03;5050160;28;20021;-65
2021/03/23 10:43:31;;;;;;;17.35;4.63;;;;;;;26.12;49.98;101537.72;5054002;28;20029;-64
2021/03/23 10:45:59;;;;;;;15.52;3.58;;;;;;;26.09;49.94;101539.84;5055044;28;20029;-66
2021/03/23 10:48:37;;;;;;;20.10;4.65;;;;;;;26.10;50.40;101537.94;5054082;28;20059;-65
2021/03/23 10:51:25;;;;;;;21.17;4.50;;;;;;;26.04;50.17;101544.28;5036631;28;20029;-67
2021/03/23 10:54:05;;;;;;;17.77;4.40;;;;;;;26.05;50.32;101541.31;5054178;28;20032;-66
2021/03/23 10:56:39;;;;;;;19.48;4.03;;;;;;;26.06;49.69;101531.16;5054764;28;20116;-67
2021/03/23 10:59:06;;;;;;;14.85;4.47;;;;;;;26.11;50.25;101534.13;5049837;28;20041;-67
2021/03/23 11:01:31;;;;;;;20.80;4.75;;;;;;;26.07;51.79;101532.84;5061042;28;20043;-67
2021/03/23 11:04:10;;;;;;;19.92;4.53;;;;;;;26.18;51.93;101545.16;5053301;28;20476;-66
2021/03/23 11:06:37;;;;;;;16.02;4.15;;;;;;;26.24;52.28;101538.84;5052010;28;20495;-66
2021/03/23 11:09:07;;;;;;;17.75;4.72;;;;;;;26.23;52.35;101540.75;5034042;28;20097;-67
2021/03/23 11:11:33;;;;;;;19.38;5.32;;;;;;;26.18;52.53;101534.13;5054349;28;20028;-66
2021/03/23 11:13:58;;;;;;;16.10;4.65;;;;;;;26.18;51.95;101540.50;5035794;28;20017;-67
2021/03/23 11:16:26;;;;;;;22.00;4.32;;;;;;;26.17;53.92;101527.78;5054695;28;20555;-68
2021/03/23 11:18:53;;;;;;;19.85;5.50;;;;;;;26.17;51.64;101529.69;5054118;28;20025;-66
2021/03/23 11:21:19;;;;;;;16.13;4.57;;;;;;;26.15;51.67;101529.03;5054705;28;20032;-67
2021/03/23 11:23:47;;;;;;;18.65;4.57;;;;;;;26.11;52.15;101538.78;5054301;28;20025;-67
2021/03/23 11:26:24;;;;;;;16.42;4.57;;;;;;;26.11;51.49;101544.31;5054575;28;20029;-66
2021/03/23 11:28:54;;;;;;;18.27;5.05;;;;;;;26.12;51.40;101538.59;5055030;28;20025;-66
2021/03/23 11:31:21;;;;;;;15.02;4.00;;;;;;;26.13;50.82;101547.69;5054348;28;20112;-67
2021/03/23 11:33:47;;;;;;;20.75;4.43;;;;;;;26.13;50.95;101542.19;5054174;28;20027;-66
2021/03/23 11:36:12;;;;;;;17.30;4.32;;;;;;;26.09;51.37;101547.25;5054600;28;20060;-66
2021/03/23 11:38:38;;;;;;;17.33;5.07;;;;;;;26.11;51.27;101538.78;5054938;28;20071;-66
2021/03/23 11:41:09;;;;;;;17.65;4.10;;;;;;;26.18;51.49;101539.66;5054523;28;20031;-67